Time;durP1;ratioP1;P1;durP2;ratioP2;P2;SDS_P1;SDS_P2;PMS_P1;PMS_P2;Temp;Humidity;BMP_temperature;BMP_pressure;BME280_temperature;BME280_humidity;BME280_pressure;Samples;Min_cycle;Max_cycle;Signal;HPM_P1;HPM_P2
2024/02/10 00:02:06;;;;;;;228.80;60.30;;;;;;;;;;5004473;28;20276;-45
2024/02/10 00:04:33;;;;;;;231.68;61.45;;;;;;;;;;5008237;28;20823;-45
2024/02/10 00:06:59;;;;;;;231.38;62.08;;;;;;;;;;5009432;28;20284;-45
2024/02/10 00:09:25;;;;;;;234.05;62.78;;;;;;;;;;5004853;28;20223;-46
2024/02/10 00:11:51;;;;;;;233.67;63.77;;;;;;;;;;5002978;28;20188;-45
2024/02/10 00:14:18;;;;;;;233.80;66.07;;;;;;;;;;5003738;28;20769;-45
2024/02/10 00:16:44;;;;;;;230.32;62.40;;;;;;;;;;5004137;28;20179;-45
2024/02/10 00:19:10;;;;;;;227.80;61.08;;;;;;;;;;5004204;28;20567;-46
2024/02/10 00:21:37;;;;;;;227.63;59.83;;;;;;;;;;5006438;28;20202;-45
2024/02/10 00:24:04;;;;;;;228.75;61.97;;;;;;;;;;5009561;28;20169;-46
2024/02/10 00:26:30;;;;;;;228.70;61.08;;;;;;;;;;5009371;28;20168;-45
2024/02/10 00:28:57;;;;;;;230.75;63.38;;;;;;;;;;5003774;28;20182;-45
2024/02/10 00:31:23;;;;;;;230.25;62.80;;;;;;;;;;5004545;28;20198;-45
2024/02/10 00:33:53;;;;;;;230.20;62.78;;;;;;;;;;5012676;28;20186;-45
2024/02/10 00:36:19;;;;;;;227.40;60.90;;;;;;;;;;5008792;28;20177;-45
2024/02/10 00:38:45;;;;;;;228.32;60.47;;;;;;;;;;5012200;28;20564;-45
2024/02/10 00:41:13;;;;;;;229.25;60.75;;;;;;;;;;5012449;28;20197;-45
2024/02/10 00:43:42;;;;;;;227.13;59.38;;;;;;;;;;5005897;28;20200;-45
2024/02/10 00:46:15;;;;;;;228.75;61.38;;;;;;;;;;5007948;28;20647;-45
2024/02/10 00:48:41;;;;;;;228.15;60.70;;;;;;;;;;5008050;28;20191;-45
2024/02/10 00:51:07;;;;;;;228.52;61.85;;;;;;;;;;5004108;28;20213;-47
2024/02/10 00:53:40;;;;;;;226.50;59.95;;;;;;;;;;5004481;28;20706;-45
2024/02/10 00:56:08;;;;;;;227.88;61.63;;;;;;;;;;5004196;28;20194;-45
2024/02/10 00:58:34;;;;;;;226.68;60.53;;;;;;;;;;5004161;28;20187;-46
2024/02/10 01:01:00;;;;;;;227.60;60.63;;;;;;;;;;5003938;28;20278;-45
2024/02/10 01:03:26;;;;;;;226.27;58.90;;;;;;;;;;5007208;28;20494;-45
2024/02/10 01:05:52;;;;;;;228.07;60.88;;;;;;;;;;5008352;28;20403;-45
2024/02/10 01:08:18;;;;;;;226.47;59.67;;;;;;;;;;5004371;28;20172;-45
2024/02/10 01:10:45;;;;;;;227.07;60.65;;;;;;;;;;5006557;28;20514;-46
2024/02/10 01:13:11;;;;;;;229.05;60.00;;;;;;;;;;5012013;28;20168;-45
2024/02/10 01:15:38;;;;;;;231.00;60.42;;;;;;;;;;5003560;28;20601;-45
2024/02/10 01:18:05;;;;;;;227.95;59.90;;;;;;;;;;5003763;28;20176;-46
2024/02/10 01:20:31;;;;;;;228.82;59.42;;;;;;;;;;5006103;28;20234;-45
2024/02/10 01:22:59;;;;;;;228.88;60.25;;;;;;;;;;5008501;28;20207;-46
2024/02/10 01:25:25;;;;;;;228.98;60.58;;;;;;;;;;5000212;28;20256;-45
2024/02/10 01:27:51;;;;;;;226.25;58.13;;;;;;;;;;5008356;28;20597;-45
2024/02/10 01:30:20;;;;;;;228.23;60.40;;;;;;;;;;5003688;28;20200;-46
2024/02/10 01:32:46;;;;;;;226.52;60.95;;;;;;;;;;5007767;28;20176;-46
2024/02/10 01:35:11;;;;;;;225.57;60.22;;;;;;;;;;5003472;28;20181;-45
2024/02/10 01:37:40;;;;;;;228.17;61.57;;;;;;;;;;5005294;28;20551;-45
2024/02/10 01:40:11;;;;;;;227.10;61.30;;;;;;;;;;5010349;28;20432;-45
2024/02/10 01:42:37;;;;;;;227.10;61.47;;;;;;;;;;5005129;28;20515;-46
2024/02/10 01:45:11;;;;;;;227.05;60.03;;;;;;;;;;5010684;28;20166;-46
2024/02/10 01:47:38;;;;;;;228.73;61.13;;;;;;;;;;5011209;28;20165;-46
2024/02/10 01:50:07;;;;;;;228.45;61.67;;;;;;;;;;5011372;28;20196;-46
2024/02/10 01:52:35;;;;;;;226.95;60.55;;;;;;;;;;5013103;28;20174;-46
2024/02/10 01:55:01;;;;;;;228.63;61.15;;;;;;;;;;5014952;28;20180;-46
2024/02/10 01:57:27;;;;;;;230.07;62.33;;;;;;;;;;5005989;28;20656;-46
2024/02/10 01:59:53;;;;;;;228.23;61.10;;;;;;;;;;5007699;28;20215;-46
2024/02/10 02:02:19;;;;;;;228.65;60.25;;;;;;;;;;4999139;28;20515;-46
2024/02/10 02:04:45;;;;;;;227.15;60.85;;;;;;;;;;5006694;28;20337;-46
2024/02/10 02:07:11;;;;;;;229.40;61.13;;;;;;;;;;5002966;28;20569;-46
2024/02/10 02:09:38;;;;;;;229.80;62.25;;;;;;;;;;5010980;28;20171;-46
2024/02/10 02:12:07;;;;;;;227.60;60.95;;;;;;;;;;5016324;28;20559;-45
2024/02/10 02:14:36;;;;;;;229.60;61.85;;;;;;;;;;5005097;28;20176;-46
2024/02/10 02:17:04;;;;;;;235.30;65.60;;;;;;;;;;4999993;28;20190;-46
2024/02/10 02:19:32;;;;;;;228.57;61.92;;;;;;;;;;5010929;28;20172;-46
2024/02/10 02:22:00;;;;;;;229.10;61.28;;;;;;;;;;5010854;28;20210;-46
2024/02/10 02:24:28;;;;;;;230.40;64.43;;;;;;;;;;5010817;28;20171;-45
2024/02/10 02:26:54;;;;;;;227.52;59.20;;;;;;;;;;5004384;28;20171;-46
2024/02/10 02:29:20;;;;;;;227.73;61.10;;;;;;;;;;5014072;28;20182;-46
2024/02/10 02:31:46;;;;;;;230.30;62.85;;;;;;;;;;5005930;28;20208;-46
2024/02/10 02:34:12;;;;;;;227.40;61.47;;;;;;;;;;5010571;28;20296;-46
2024/02/10 02:36:39;;;;;;;229.30;62.40;;;;;;;;;;5010613;28;20412;-45
2024/02/10 02:39:05;;;;;;;228.80;61.65;;;;;;;;;;5002736;28;20801;-46
2024/02/10 02:41:31;;;;;;;230.25;63.28;;;;;;;;;;5010754;28;20289;-45
2024/02/10 02:43:57;;;;;;;229.33;62.17;;;;;;;;;;5002908;28;20689;-46
2024/02/10 02:46:24;;;;;;;228.95;62.60;;;;;;;;;;4985310;28;20414;-46
2024/02/10 02:48:53;;;;;;;229.30;62.63;;;;;;;;;;5010550;28;20270;-46
2024/02/10 02:51:20;;;;;;;228.80;61.40;;;;;;;;;;5006682;28;20667;-46
2024/02/10 02:53:48;;;;;;;228.25;62.20;;;;;;;;;;5006883;28;20181;-46
2024/02/10 02:56:14;;;;;;;229.20;61.92;;;;;;;;;;5002970;28;20514;-46
2024/02/10 02:58:40;;;;;;;228.65;62.28;;;;;;;;;;5002544;28;20705;-46
2024/02/10 03:01:07;;;;;;;231.23;64.85;;;;;;;;;;5002366;28;20319;-46
2024/02/10 03:03:33;;;;;;;227.68;61.47;;;;;;;;;;5002691;28;20580;-46
2024/02/10 03:05:59;;;;;;;228.07;63.05;;;;;;;;;;5010623;28;20178;-46
2024/02/10 03:08:27;;;;;;;229.48;63.30;;;;;;;;;;5005787;28;20248;-46
2024/02/10 03:10:53;;;;;;;231.52;65.53;;;;;;;;;;5013045;28;20196;-46
2024/02/10 03:13:19;;;;;;;228.73;62.83;;;;;;;;;;5010651;28;20511;-46
2024/02/10 03:15:47;;;;;;;230.63;62.17;;;;;;;;;;4996634;28;20177;-46
2024/02/10 03:18:13;;;;;;;229.25;62.33;;;;;;;;;;5006089;28;20166;-46
2024/02/10 03:20:39;;;;;;;231.30;65.28;;;;;;;;;;5006329;28;20207;-46
2024/02/10 03:23:07;;;;;;;227.40;63.05;;;;;;;;;;5006046;28;20210;-46
2024/02/10 03:25:33;;;;;;;230.68;63.88;;;;;;;;;;5008027;28;20671;-46
2024/02/10 03:28:03;;;;;;;231.67;65.67;;;;;;;;;;5011738;28;20184;-45
2024/02/10 03:30:29;;;;;;;230.27;63.72;;;;;;;;;;5008488;28;20443;-46
2024/02/10 03:32:55;;;;;;;229.50;63.87;;;;;;;;;;5010573;28;20203;-46
2024/02/10 03:35:21;;;;;;;227.45;63.70;;;;;;;;;;5006473;28;20890;-45
2024/02/10 03:37:47;;;;;;;229.55;63.90;;;;;;;;;;5005664;28;20241;-46
2024/02/10 03:40:18;;;;;;;228.95;63.22;;;;;;;;;;5005420;28;20757;-46
2024/02/10 03:42:44;;;;;;;231.10;65.47;;;;;;;;;;5005520;28;20347;-46
2024/02/10 03:45:10;;;;;;;231.27;65.00;;;;;;;;;;5005454;28;20563;-46
2024/02/10 03:47:37;;;;;;;233.02;66.30;;;;;;;;;;5007581;28;20514;-45
2024/02/10 03:50:04;;;;;;;227.63;61.63;;;;;;;;;;5010470;28;20724;-45
2024/02/10 03:52:31;;;;;;;231.25;65.15;;;;;;;;;;5007673;28;20192;-46
2024/02/10 03:54:58;;;;;;;230.05;64.47;;;;;;;;;;5004134;28;20270;-46
2024/02/10 03:57:24;;;;;;;231.70;65.15;;;;;;;;;;5006642;28;20403;-45
2024/02/10 03:59:50;;;;;;;228.57;63.15;;;;;;;;;;4989302;28;20705;-46
2024/02/10 04:02:18;;;;;;;230.82;65.05;;;;;;;;;;5005247;28;20675;-45
2024/02/10 04:04:44;;;;;;;230.52;64.03;;;;;;;;;;5006005;28;20177;-46
2024/02/10 04:07:12;;;;;;;229.57;64.28;;;;;;;;;;5009985;28;20177;-45
2024/02/10 04:09:38;;;;;;;232.98;67.40;;;;;;;;;;5008229;28;20180;-46
2024/02/10 04:12:04;;;;;;;228.32;64.57;;;;;;;;;;5003250;28;20173;-45
2024/02/10 04:14:30;;;;;;;230.75;65.93;;;;;;;;;;5006801;28;20560;-46
2024/02/10 04:16:56;;;;;;;231.40;65.17;;;;;;;;;;5004640;28;20235;-46
2024/02/10 04:19:22;;;;;;;230.37;64.77;;;;;;;;;;5012551;28;20416;-45
2024/02/10 04:21:51;;;;;;;228.70;62.87;;;;;;;;;;5013029;28;20518;-45
2024/02/10 04:24:17;;;;;;;232.88;68.13;;;;;;;;;;5004474;28;20482;-46
2024/02/10 04:26:47;;;;;;;230.40;65.30;;;;;;;;;;5012841;28;20215;-46
2024/02/10 04:29:14;;;;;;;230.70;64.03;;;;;;;;;;5004671;28;20221;-46
2024/02/10 04:31:40;;;;;;;229.25;64.43;;;;;;;;;;5013571;28;20754;-46
2024/02/10 04:34:06;;;;;;;230.63;64.03;;;;;;;;;;5012690;28;20258;-45
2024/02/10 04:36:35;;;;;;;230.20;64.27;;;;;;;;;;5012882;28;20219;-45
2024/02/10 04:39:03;;;;;;;230.10;63.08;;;;;;;;;;5014610;28;20414;-46
2024/02/10 04:41:29;;;;;;;230.80;65.20;;;;;;;;;;5012551;28;20183;-46
2024/02/10 04:43:55;;;;;;;227.55;62.22;;;;;;;;;;5012756;28;20206;-45
2024/02/10 04:46:22;;;;;;;225.80;60.30;;;;;;;;;;5000858;28;20235;-46
2024/02/10 04:48:53;;;;;;;228.45;61.50;;;;;;;;;;5019205;28;20411;-46
2024/02/10 04:51:23;;;;;;;230.75;63.58;;;;;;;;;;5012643;28;20184;-46
2024/02/10 04:53:49;;;;;;;230.35;64.75;;;;;;;;;;5014319;28;20179;-46
2024/02/10 04:56:21;;;;;;;226.70;62.50;;;;;;;;;;5008945;28;20236;-46
2024/02/10 04:58:49;;;;;;;229.32;62.03;;;;;;;;;;5008429;28;20415;-45
2024/02/10 05:01:19;;;;;;;225.85;60.40;;;;;;;;;;5004406;28;20274;-46
2024/02/10 05:03:45;;;;;;;228.82;62.55;;;;;;;;;;5004108;28;20277;-46
2024/02/10 05:06:11;;;;;;;229.30;61.08;;;;;;;;;;5012188;28;20173;-46
2024/02/10 05:08:40;;;;;;;227.10;60.20;;;;;;;;;;5014155;28;20176;-46
2024/02/10 05:11:06;;;;;;;226.10;60.90;;;;;;;;;;5015843;28;20431;-46
2024/02/10 05:13:32;;;;;;;229.90;62.80;;;;;;;;;;5017457;28;20226;-46
2024/02/10 05:15:58;;;;;;;227.57;61.60;;;;;;;;;;5018371;28;20609;-45
2024/02/10 05:18:24;;;;;;;226.65;60.40;;;;;;;;;;5007262;28;20412;-46
2024/02/10 05:20:52;;;;;;;227.43;62.15;;;;;;;;;;5008501;28;20569;-45
2024/02/10 05:23:19;;;;;;;225.68;61.85;;;;;;;;;;5004166;28;20227;-46
2024/02/10 05:25:45;;;;;;;225.82;59.35;;;;;;;;;;5003513;28;20176;-46
2024/02/10 05:28:11;;;;;;;224.27;58.97;;;;;;;;;;5016925;28;20679;-46
2024/02/10 05:30:37;;;;;;;228.27;62.30;;;;;;;;;;5005033;28;20445;-45
2024/02/10 05:33:04;;;;;;;227.03;61.53;;;;;;;;;;5009708;28;20429;-46
2024/02/10 05:35:31;;;;;;;226.55;60.55;;;;;;;;;;5013215;28;20407;-47
2024/02/10 05:37:58;;;;;;;225.25;59.55;;;;;;;;;;5011397;28;20801;-46
2024/02/10 05:40:24;;;;;;;228.40;62.40;;;;;;;;;;5012951;28;20566;-46
2024/02/10 05:42:51;;;;;;;225.77;60.95;;;;;;;;;;5014758;28;20196;-46
2024/02/10 05:45:18;;;;;;;228.43;61.75;;;;;;;;;;5018026;28;20168;-45
2024/02/10 05:47:45;;;;;;;226.48;61.58;;;;;;;;;;5003313;28;20184;-45
2024/02/10 05:50:15;;;;;;;226.98;61.10;;;;;;;;;;5011081;28;20188;-46
2024/02/10 05:52:42;;;;;;;228.80;62.92;;;;;;;;;;5004556;28;20227;-46
2024/02/10 05:55:28;;;;;;;226.63;61.03;;;;;;;;;;5010336;28;20228;-46
2024/02/10 05:58:06;;;;;;;225.43;59.92;;;;;;;;;;5017873;28;20221;-46
2024/02/10 06:00:32;;;;;;;226.82;61.53;;;;;;;;;;5011356;28;20237;-46
2024/02/10 06:02:59;;;;;;;225.98;60.47;;;;;;;;;;5013006;28;20661;-46
2024/02/10 06:05:25;;;;;;;228.52;62.28;;;;;;;;;;5011050;28;20636;-46
2024/02/10 06:07:52;;;;;;;226.20;60.47;;;;;;;;;;5007067;28;20259;-45
2024/02/10 06:10:18;;;;;;;228.23;63.13;;;;;;;;;;4998058;28;20202;-45
2024/02/10 06:12:51;;;;;;;225.00;59.65;;;;;;;;;;5017493;28;20214;-46
2024/02/10 06:15:18;;;;;;;226.27;61.15;;;;;;;;;;5002560;28;20258;-45
2024/02/10 06:17:45;;;;;;;226.50;60.40;;;;;;;;;;5012075;28;20267;-46
2024/02/10 06:20:14;;;;;;;226.60;60.97;;;;;;;;;;5013768;28;20698;-46
2024/02/10 06:22:41;;;;;;;227.27;61.30;;;;;;;;;;5011004;28;20191;-46
2024/02/10 06:25:10;;;;;;;226.50;61.42;;;;;;;;;;5003150;28;20170;-46
2024/02/10 06:27:36;;;;;;;226.35;61.00;;;;;;;;;;5015909;28;20159;-45
2024/02/10 06:30:02;;;;;;;227.27;61.53;;;;;;;;;;5017619;28;20222;-46
2024/02/10 06:32:28;;;;;;;227.15;61.40;;;;;;;;;;5010826;28;20469;-46
2024/02/10 06:34:55;;;;;;;225.40;59.92;;;;;;;;;;5015061;28;20180;-46
2024/02/10 06:37:21;;;;;;;223.98;58.05;;;;;;;;;;5015950;28;20589;-46
2024/02/10 06:39:47;;;;;;;225.60;60.60;;;;;;;;;;5010815;28;20307;-46
2024/02/10 06:42:13;;;;;;;225.70;59.47;;;;;;;;;;5010610;28;20450;-46
2024/02/10 06:44:39;;;;;;;225.02;59.15;;;;;;;;;;5012917;28;20180;-46
2024/02/10 06:47:07;;;;;;;224.95;59.75;;;;;;;;;;5014946;28;20164;-45
2024/02/10 06:49:34;;;;;;;228.98;61.15;;;;;;;;;;5017304;28;20175;-45
2024/02/10 06:52:02;;;;;;;224.60;59.03;;;;;;;;;;5014453;28;20164;-45
2024/02/10 06:57:04;;;;;;;230.60;64.10;;;;;;;;;;5174719;22;20216;-48
2024/02/10 06:59:31;;;;;;;227.35;62.15;;;;;;;;;;4968217;28;20182;-45
2024/02/10 07:01:57;;;;;;;225.30;60.00;;;;;;;;;;4976673;28;20193;-45
2024/02/10 07:04:24;;;;;;;226.35;61.20;;;;;;;;;;4976622;28;20253;-44
2024/02/10 07:06:53;;;;;;;228.68;62.22;;;;;;;;;;4983923;28;20193;-45
2024/02/10 07:09:22;;;;;;;225.02;61.22;;;;;;;;;;4990268;28;20177;-46
2024/02/10 07:11:49;;;;;;;228.48;61.88;;;;;;;;;;4975646;28;20695;-45
2024/02/10 07:14:17;;;;;;;224.07;58.67;;;;;;;;;;4980737;28;20197;-45
2024/02/10 07:16:43;;;;;;;226.32;61.50;;;;;;;;;;4977075;28;20683;-46
2024/02/10 07:19:10;;;;;;;225.15;61.22;;;;;;;;;;4985577;28;20228;-46
2024/02/10 07:21:36;;;;;;;226.75;62.45;;;;;;;;;;4985697;28;20581;-46
2024/02/10 07:24:05;;;;;;;226.02;62.88;;;;;;;;;;4985629;28;20660;-46
2024/02/10 07:26:32;;;;;;;229.88;65.35;;;;;;;;;;4980174;28;20555;-46
2024/02/10 07:28:59;;;;;;;226.38;61.40;;;;;;;;;;4980825;28;20169;-46
2024/02/10 07:31:28;;;;;;;227.15;61.13;;;;;;;;;;4988085;28;20249;-46
2024/02/10 07:33:58;;;;;;;224.40;61.00;;;;;;;;;;4986719;28;20188;-46
2024/02/10 07:36:32;;;;;;;227.00;62.03;;;;;;;;;;4977578;28;20233;-46
2024/02/10 07:38:58;;;;;;;227.70;63.45;;;;;;;;;;4966788;28;20271;-46
2024/02/10 07:41:24;;;;;;;225.85;62.63;;;;;;;;;;4981214;28;20195;-46
2024/02/10 07:43:50;;;;;;;227.17;62.50;;;;;;;;;;4983262;28;20443;-46
2024/02/10 07:46:16;;;;;;;226.20;61.90;;;;;;;;;;4986603;28;20431;-46
2024/02/10 07:48:42;;;;;;;227.10;61.30;;;;;;;;;;4986126;28;20405;-46
2024/02/10 07:51:08;;;;;;;226.80;62.57;;;;;;;;;;4986679;28;20180;-45
2024/02/10 07:53:34;;;;;;;229.67;62.87;;;;;;;;;;4985921;28;20968;-46
2024/02/10 07:56:01;;;;;;;224.73;61.20;;;;;;;;;;4976407;28;20798;-46
2024/02/10 07:58:29;;;;;;;227.35;62.65;;;;;;;;;;4974293;28;20925;-46
2024/02/10 08:00:55;;;;;;;229.45;65.53;;;;;;;;;;4984883;28;20192;-46
2024/02/10 08:03:22;;;;;;;228.07;63.43;;;;;;;;;;4986109;28;20197;-46
2024/02/10 08:05:51;;;;;;;228.38;63.67;;;;;;;;;;4985305;28;20858;-46
2024/02/10 08:08:21;;;;;;;228.65;63.35;;;;;;;;;;4976629;28;20183;-46
2024/02/10 08:10:47;;;;;;;231.60;66.72;;;;;;;;;;4990129;28;20174;-46
2024/02/10 08:13:13;;;;;;;230.07;66.67;;;;;;;;;;4981580;28;20185;-46
2024/02/10 08:15:39;;;;;;;238.27;75.40;;;;;;;;;;4988152;28;20432;-46
2024/02/10 08:18:08;;;;;;;235.60;71.88;;;;;;;;;;4984524;28;20456;-46
2024/02/10 08:20:34;;;;;;;234.05;70.65;;;;;;;;;;4979260;28;20193;-46
2024/02/10 08:23:00;;;;;;;237.13;73.00;;;;;;;;;;4985024;28;20188;-46
2024/02/10 08:25:28;;;;;;;235.38;71.75;;;;;;;;;;4985901;28;20258;-45
2024/02/10 08:27:56;;;;;;;234.75;70.15;;;;;;;;;;4983191;28;20604;-46
2024/02/10 08:30:23;;;;;;;237.82;73.22;;;;;;;;;;4984457;28;20195;-46
2024/02/10 08:32:50;;;;;;;236.18;72.07;;;;;;;;;;4989945;28;20309;-46
2024/02/10 08:35:16;;;;;;;241.52;76.43;;;;;;;;;;4984296;28;20208;-46
2024/02/10 08:37:42;;;;;;;235.97;73.30;;;;;;;;;;4977378;28;20208;-46
2024/02/10 08:40:13;;;;;;;239.60;75.90;;;;;;;;;;4978367;28;20507;-46
2024/02/10 08:42:38;;;;;;;240.10;76.28;;;;;;;;;;4973544;28;20207;-46
2024/02/10 08:45:05;;;;;;;243.90;81.90;;;;;;;;;;4984431;28;20176;-46
2024/02/10 08:47:31;;;;;;;237.23;73.43;;;;;;;;;;4976343;28;20844;-46
2024/02/10 08:49:57;;;;;;;239.35;75.28;;;;;;;;;;4989410;28;20217;-46
2024/02/10 08:52:23;;;;;;;240.37;76.67;;;;;;;;;;4987543;28;20196;-46
2024/02/10 08:54:49;;;;;;;242.77;78.77;;;;;;;;;;4983113;28;20420;-46
2024/02/10 08:57:19;;;;;;;248.53;83.87;;;;;;;;;;4983873;28;20530;-46
2024/02/10 08:59:51;;;;;;;244.90;79.93;;;;;;;;;;4972966;28;20944;-46
2024/02/10 09:02:17;;;;;;;244.85;82.30;;;;;;;;;;4978832;28;20201;-46
2024/02/10 09:04:44;;;;;;;246.30;83.80;;;;;;;;;;4983634;28;20178;-46
2024/02/10 09:07:10;;;;;;;247.65;84.63;;;;;;;;;;4971978;28;20257;-46
2024/02/10 09:09:36;;;;;;;248.65;85.57;;;;;;;;;;4981165;28;20178;-46
2024/02/10 09:12:03;;;;;;;248.60;85.97;;;;;;;;;;4988972;28;20687;-46
2024/02/10 09:14:29;;;;;;;250.85;88.80;;;;;;;;;;4987981;28;20640;-46
2024/02/10 09:16:55;;;;;;;248.80;88.25;;;;;;;;;;4977763;28;20199;-47
2024/02/10 09:19:23;;;;;;;250.77;90.30;;;;;;;;;;4971973;28;20187;-46
2024/02/10 09:21:55;;;;;;;251.95;92.82;;;;;;;;;;4975282;28;20926;-46
2024/02/10 09:24:23;;;;;;;254.25;94.60;;;;;;;;;;4992159;28;20176;-46
2024/02/10 09:26:49;;;;;;;253.15;93.75;;;;;;;;;;4972128;28;20249;-47
2024/02/10 09:29:15;;;;;;;254.00;96.53;;;;;;;;;;4990145;28;20673;-47
2024/02/10 09:31:45;;;;;;;253.35;97.13;;;;;;;;;;4977803;28;20928;-46
2024/02/10 09:34:12;;;;;;;255.95;98.90;;;;;;;;;;4972681;28;20183;-47
2024/02/10 09:36:42;;;;;;;259.17;103.63;;;;;;;;;;4981278;28;20676;-47
2024/02/10 09:39:08;;;;;;;257.55;101.50;;;;;;;;;;4985579;28;20417;-47
2024/02/10 09:41:34;;;;;;;256.23;102.53;;;;;;;;;;4976381;28;20685;-47
2024/02/10 09:44:00;;;;;;;257.60;107.37;;;;;;;;;;4991335;28;20449;-47
2024/02/10 09:46:26;;;;;;;258.07;104.50;;;;;;;;;;4972364;28;20440;-47
2024/02/10 09:48:53;;;;;;;257.35;103.05;;;;;;;;;;4972709;28;20401;-47
2024/02/10 09:51:19;;;;;;;255.60;102.13;;;;;;;;;;4972860;28;20220;-47
2024/02/10 09:53:45;;;;;;;256.37;101.33;;;;;;;;;;4972351;28;20809;-47
2024/02/10 09:56:15;;;;;;;255.17;100.83;;;;;;;;;;4980893;28;20447;-47
2024/02/10 09:58:42;;;;;;;256.33;102.63;;;;;;;;;;4985449;28;20491;-46
2024/02/10 10:01:13;;;;;;;255.10;100.33;;;;;;;;;;4975697;28;20817;-46
2024/02/10 10:03:39;;;;;;;256.13;101.03;;;;;;;;;;4990548;28;20974;-46
2024/02/10 10:06:09;;;;;;;255.80;100.53;;;;;;;;;;4971787;28;20512;-47
2024/02/10 10:08:37;;;;;;;253.47;99.27;;;;;;;;;;4990551;28;20970;-46
2024/02/10 10:11:04;;;;;;;255.13;99.33;;;;;;;;;;4976142;28;20775;-46
2024/02/10 10:13:32;;;;;;;249.48;92.15;;;;;;;;;;4984967;28;20419;-46
2024/02/10 10:15:58;;;;;;;254.97;100.07;;;;;;;;;;4981290;28;20672;-46
2024/02/10 10:18:24;;;;;;;251.63;96.30;;;;;;;;;;4971661;28;20444;-46
2024/02/10 10:20:51;;;;;;;253.43;97.40;;;;;;;;;;4972175;28;20412;-47
2024/02/10 10:23:17;;;;;;;249.05;92.50;;;;;;;;;;4973282;28;20871;-46
2024/02/10 10:25:45;;;;;;;249.43;90.18;;;;;;;;;;4991182;28;20193;-46
2024/02/10 10:28:16;;;;;;;251.47;94.57;;;;;;;;;;4973411;28;20212;-46
2024/02/10 10:30:46;;;;;;;250.50;95.80;;;;;;;;;;4987649;28;20801;-47
2024/02/10 10:33:13;;;;;;;249.70;93.93;;;;;;;;;;4978128;28;20177;-47
2024/02/10 10:35:44;;;;;;;253.10;98.53;;;;;;;;;;4971769;28;20513;-47
2024/02/10 10:38:11;;;;;;;253.83;99.60;;;;;;;;;;4980562;28;20976;-46
2024/02/10 10:40:37;;;;;;;252.43;98.33;;;;;;;;;;4986415;28;20416;-47
2024/02/10 10:43:10;;;;;;;252.03;100.67;;;;;;;;;;4971807;28;20475;-47
2024/02/10 10:45:37;;;;;;;253.53;100.67;;;;;;;;;;4971966;28;20481;-47
2024/02/10 10:48:04;;;;;;;249.32;94.60;;;;;;;;;;4971917;28;20476;-48
2024/02/10 10:50:30;;;;;;;252.57;100.00;;;;;;;;;;4989239;28;20173;-47
2024/02/10 10:53:04;;;;;;;252.13;97.05;;;;;;;;;;4976631;28;20482;-46
2024/02/10 10:55:30;;;;;;;251.63;99.23;;;;;;;;;;4971304;28;20208;-47
2024/02/10 10:57:57;;;;;;;253.30;100.63;;;;;;;;;;4975208;28;20955;-47
2024/02/10 11:00:25;;;;;;;252.85;101.63;;;;;;;;;;4971942;28;20405;-46
2024/02/10 11:02:53;;;;;;;253.77;101.33;;;;;;;;;;4975740;28;20198;-47
2024/02/10 11:05:20;;;;;;;257.03;106.40;;;;;;;;;;4979490;28;20409;-47
2024/02/10 11:07:49;;;;;;;259.83;109.70;;;;;;;;;;4988411;28;20412;-47
2024/02/10 11:10:35;;;;;;;256.83;106.37;;;;;;;;;;4973972;28;20543;-46
2024/02/10 11:13:01;;;;;;;253.35;102.85;;;;;;;;;;4989068;28;20419;-47
2024/02/10 11:15:27;;;;;;;258.93;109.83;;;;;;;;;;4974037;28;20202;-47
2024/02/10 11:18:00;;;;;;;256.10;102.47;;;;;;;;;;4981835;28;20724;-47
2024/02/10 11:20:30;;;;;;;257.20;107.70;;;;;;;;;;4979841;28;20412;-47
2024/02/10 11:22:57;;;;;;;255.15;103.68;;;;;;;;;;4971324;28;20496;-47
2024/02/10 11:25:24;;;;;;;259.53;111.57;;;;;;;;;;4976525;28;20196;-46
2024/02/10 11:27:50;;;;;;;256.20;102.70;;;;;;;;;;4988642;28;20446;-47
2024/02/10 11:30:16;;;;;;;251.83;99.33;;;;;;;;;;4973016;28;20773;-47
2024/02/10 11:32:42;;;;;;;254.90;102.10;;;;;;;;;;4993986;28;20411;-47
2024/02/10 11:35:09;;;;;;;267.50;118.07;;;;;;;;;;4978230;28;20971;-48
2024/02/10 11:37:35;;;;;;;259.43;109.67;;;;;;;;;;4988250;28;20418;-48
2024/02/10 11:40:02;;;;;;;259.20;107.60;;;;;;;;;;4984221;28;20503;-47
2024/02/10 11:42:30;;;;;;;260.90;110.90;;;;;;;;;;4974790;28;20452;-47
2024/02/10 11:44:56;;;;;;;258.40;109.33;;;;;;;;;;4979189;28;20405;-47
2024/02/10 11:47:22;;;;;;;271.23;125.20;;;;;;;;;;4990608;28;20419;-48
2024/02/10 11:49:49;;;;;;;261.47;113.73;;;;;;;;;;4966879;28;20468;-47
2024/02/10 11:52:15;;;;;;;257.83;103.45;;;;;;;;;;4972925;28;20492;-47
2024/02/10 11:54:41;;;;;;;257.33;101.43;;;;;;;;;;4973495;28;20292;-47
2024/02/10 11:57:07;;;;;;;258.50;106.33;;;;;;;;;;4973774;28;20441;-47
2024/02/10 11:59:37;;;;;;;254.77;98.53;;;;;;;;;;4974420;28;20467;-48
2024/02/10 12:02:05;;;;;;;255.88;100.75;;;;;;;;;;4974209;28;20216;-47
2024/02/10 12:04:34;;;;;;;259.67;107.70;;;;;;;;;;4974451;28;20173;-47
2024/02/10 12:07:00;;;;;;;257.93;104.20;;;;;;;;;;4976084;28;20421;-48
2024/02/10 12:09:27;;;;;;;257.60;104.20;;;;;;;;;;4993923;28;20407;-47
2024/02/10 12:11:57;;;;;;;256.45;104.25;;;;;;;;;;4975180;28;20455;-47
2024/02/10 12:14:24;;;;;;;257.03;104.47;;;;;;;;;;4974149;28;20556;-47
2024/02/10 12:16:52;;;;;;;256.97;103.33;;;;;;;;;;4987273;28;20424;-47
2024/02/10 12:19:21;;;;;;;255.77;103.97;;;;;;;;;;4982822;28;20405;-47
2024/02/10 12:21:48;;;;;;;253.20;99.30;;;;;;;;;;4974159;28;20413;-48
2024/02/10 12:24:16;;;;;;;253.23;101.80;;;;;;;;;;4979328;28;20266;-47
2024/02/10 12:26:42;;;;;;;253.55;100.13;;;;;;;;;;4991158;28;20424;-47
2024/02/10 12:29:10;;;;;;;254.05;99.53;;;;;;;;;;4984518;28;20480;-47
2024/02/10 12:31:39;;;;;;;257.67;106.83;;;;;;;;;;4978402;28;20189;-47
2024/02/10 12:34:05;;;;;;;251.45;97.05;;;;;;;;;;4984385;28;20413;-47
2024/02/10 12:36:33;;;;;;;254.10;100.53;;;;;;;;;;4988807;28;20215;-47
2024/02/10 12:38:59;;;;;;;257.63;105.75;;;;;;;;;;4982231;28;20173;-48
2024/02/10 12:41:25;;;;;;;257.47;108.33;;;;;;;;;;4988183;28;20176;-48
2024/02/10 12:43:52;;;;;;;256.03;105.37;;;;;;;;;;4981813;28;20471;-48
2024/02/10 12:46:18;;;;;;;256.87;104.43;;;;;;;;;;4982257;28;20853;-47
2024/02/10 12:48:44;;;;;;;254.70;100.43;;;;;;;;;;4982796;28;20401;-48
2024/02/10 12:51:11;;;;;;;267.60;116.70;;;;;;;;;;4987261;28;20417;-47
2024/02/10 12:53:37;;;;;;;252.90;101.25;;;;;;;;;;4976066;28;20934;-47
2024/02/10 12:56:04;;;;;;;257.87;105.93;;;;;;;;;;4973122;28;20309;-47
2024/02/10 12:58:30;;;;;;;254.27;99.45;;;;;;;;;;4983819;28;20431;-47
2024/02/10 13:00:56;;;;;;;256.70;106.43;;;;;;;;;;4985434;28;20177;-47
2024/02/10 13:03:22;;;;;;;254.05;100.07;;;;;;;;;;4979396;28;20466;-47
2024/02/10 13:05:49;;;;;;;262.97;106.03;;;;;;;;;;4982671;28;20193;-47
2024/02/10 13:08:17;;;;;;;254.02;97.43;;;;;;;;;;4984231;28;20963;-47
2024/02/10 13:10:45;;;;;;;251.25;97.00;;;;;;;;;;4976043;28;20741;-49
2024/02/10 13:13:11;;;;;;;254.43;97.05;;;;;;;;;;4987073;28;20179;-48
2024/02/10 13:15:43;;;;;;;257.80;109.47;;;;;;;;;;4981055;28;20205;-47
2024/02/10 13:18:13;;;;;;;252.25;98.43;;;;;;;;;;4985996;28;20943;-47
2024/02/10 13:20:39;;;;;;;255.60;104.87;;;;;;;;;;4983182;28;20186;-46
2024/02/10 13:23:05;;;;;;;254.23;100.17;;;;;;;;;;4973741;28;20539;-47
2024/02/10 13:25:32;;;;;;;253.10;98.10;;;;;;;;;;4975745;28;20563;-50
2024/02/10 13:27:58;;;;;;;254.17;103.37;;;;;;;;;;4981163;28;20264;-49
2024/02/10 13:30:24;;;;;;;257.40;103.10;;;;;;;;;;4972167;28;20508;-47
2024/02/10 13:32:51;;;;;;;253.93;96.97;;;;;;;;;;4971980;28;20424;-47
2024/02/10 13:35:18;;;;;;;264.17;106.37;;;;;;;;;;4976891;28;20424;-47
2024/02/10 14:08:04;;;;;;;252.82;89.13;;;;;;;;;;4972231;28;20199;-46
2024/02/10 14:12:41;;;;;;;255.23;90.68;;;;;;;;;;4971394;28;20217;-46
2024/02/10 14:15:27;;;;;;;259.80;96.97;;;;;;;;;;4971440;28;20553;-47
2024/02/10 14:17:58;;;;;;;256.02;92.43;;;;;;;;;;4970046;28;20234;-46
2024/02/10 14:20:29;;;;;;;254.35;89.78;;;;;;;;;;4972136;28;20187;-47
2024/02/10 14:22:55;;;;;;;252.90;88.90;;;;;;;;;;4985389;28;20195;-46
2024/02/10 14:25:25;;;;;;;257.70;93.00;;;;;;;;;;4978850;28;20256;-46
2024/02/10 14:27:58;;;;;;;256.33;91.82;;;;;;;;;;4971080;28;20179;-47
2024/02/10 14:30:38;;;;;;;251.77;87.68;;;;;;;;;;4972195;28;20190;-47
2024/02/10 14:33:09;;;;;;;254.20;89.03;;;;;;;;;;4972279;28;20217;-46
2024/02/10 14:35:48;;;;;;;252.43;87.43;;;;;;;;;;4971750;28;20198;-47
2024/02/10 14:38:24;;;;;;;250.05;84.90;;;;;;;;;;4973555;28;20197;-46